Time;durP1;ratioP1;P1;durP2;ratioP2;P2;SDS_P1;SDS_P2;PMS_P1;PMS_P2;Temp;Humidity;BMP_temperature;BMP_pressure;BME280_temperature;BME280_humidity;BME280_pressure;Samples;Min_cycle;Max_cycle;Signal;HPM_P1;HPM_P2
2021/12/06 00:00:20;;;;;;;;;;;6.80;81.40;;;;;;5019847;28;88816;-65
2021/12/06 00:02:47;;;;;;;;;;;6.80;81.40;;;;;;5019519;28;88188;-65
2021/12/06 00:05:13;;;;;;;;;;;6.80;81.50;;;;;;5021086;28;87184;-65
2021/12/06 00:07:39;;;;;;;;;;;6.80;81.30;;;;;;5019472;28;87582;-65
2021/12/06 00:10:06;;;;;;;;;;;6.80;81.30;;;;;;5019739;28;88143;-65
2021/12/06 00:12:31;;;;;;;;;;;6.80;81.30;;;;;;5023544;28;88014;-65
2021/12/06 00:14:57;;;;;;;;;;;6.80;81.20;;;;;;5018774;28;88154;-65
2021/12/06 00:17:22;;;;;;;;;;;6.80;81.30;;;;;;5021300;28;86374;-65
2021/12/06 00:19:48;;;;;;;;;;;6.80;81.40;;;;;;5018565;28;88314;-65
2021/12/06 00:22:15;;;;;;;;;;;6.80;81.30;;;;;;5021116;28;88167;-65
2021/12/06 00:24:41;;;;;;;;;;;6.80;81.20;;;;;;5019781;28;88133;-65
2021/12/06 00:27:07;;;;;;;;;;;6.80;81.20;;;;;;5018798;28;88601;-65
2021/12/06 00:29:33;;;;;;;;;;;6.80;81.10;;;;;;5020126;28;89422;-65
2021/12/06 00:31:58;;;;;;;;;;;6.80;81.00;;;;;;5019526;28;87172;-65
2021/12/06 00:34:29;;;;;;;;;;;6.80;81.10;;;;;;5022182;28;89205;-64
2021/12/06 00:37:05;;;;;;;;;;;6.80;81.00;;;;;;5020107;28;88766;-65
2021/12/06 00:39:32;;;;;;;;;;;6.80;81.00;;;;;;5018114;28;89446;-65
2021/12/06 00:41:57;;;;;;;;;;;6.80;81.00;;;;;;5020729;28;86717;-65
2021/12/06 00:44:23;;;;;;;;;;;6.80;80.90;;;;;;5019075;28;87142;-65
2021/12/06 00:46:48;;;;;;;;;;;6.80;81.00;;;;;;5020118;28;87489;-64
2021/12/06 00:49:14;;;;;;;;;;;6.80;81.00;;;;;;5018313;28;89233;-65
2021/12/06 00:51:40;;;;;;;;;;;6.80;81.00;;;;;;5019511;28;87138;-65
2021/12/06 00:54:07;;;;;;;;;;;6.80;81.00;;;;;;5020891;28;88000;-65
2021/12/06 00:56:32;;;;;;;;;;;6.80;81.10;;;;;;5021843;28;87148;-64
2021/12/06 00:58:58;;;;;;;;;;;6.80;80.90;;;;;;5019368;28;87289;-65
2021/12/06 01:01:23;;;;;;;;;;;6.80;81.00;;;;;;5021088;28;88161;-64
2021/12/06 01:03:49;;;;;;;;;;;6.80;81.00;;;;;;5020911;28;87132;-64
2021/12/06 01:06:15;;;;;;;;;;;6.80;81.00;;;;;;5019620;28;87854;-65
2021/12/06 01:08:41;;;;;;;;;;;6.70;80.90;;;;;;5018108;28;90224;-65
2021/12/06 01:11:08;;;;;;;;;;;6.80;81.00;;;;;;5019635;28;88443;-64
2021/12/06 01:13:34;;;;;;;;;;;6.80;81.00;;;;;;5018497;28;88086;-65
2021/12/06 01:16:00;;;;;;;;;;;6.80;81.00;;;;;;5017148;28;88618;-64
2021/12/06 01:18:26;;;;;;;;;;;6.80;81.00;;;;;;5020079;28;87189;-65
2021/12/06 01:21:08;;;;;;;;;;;6.80;81.00;;;;;;5017879;28;88428;-64
2021/12/06 01:23:52;;;;;;;;;;;6.80;81.00;;;;;;5018923;28;87137;-65
2021/12/06 01:39:53;;;;;;;;;;;6.80;81.30;;;;;;5021183;28;88212;-65
2021/12/06 01:42:18;;;;;;;;;;;6.70;81.30;;;;;;5018536;28;88647;-65
2021/12/06 01:44:46;;;;;;;;;;;6.80;81.40;;;;;;5018182;28;87169;-65
2021/12/06 01:47:14;;;;;;;;;;;6.70;81.20;;;;;;5018982;28;87797;-65
2021/12/06 01:49:42;;;;;;;;;;;6.80;81.20;;;;;;5018693;28;87916;-65
2021/12/06 01:52:15;;;;;;;;;;;6.80;81.30;;;;;;5016767;28;87159;-65
2021/12/06 01:54:41;;;;;;;;;;;6.80;81.10;;;;;;5019358;28;87142;-65
2021/12/06 01:57:07;;;;;;;;;;;6.80;81.10;;;;;;5019127;28;88030;-65
2021/12/06 01:59:33;;;;;;;;;;;6.80;81.20;;;;;;5017116;28;87176;-65
2021/12/06 02:01:59;;;;;;;;;;;6.80;81.00;;;;;;5022083;28;88758;-65
2021/12/06 02:04:25;;;;;;;;;;;6.80;81.10;;;;;;5016644;28;88127;-65
2021/12/06 02:06:50;;;;;;;;;;;6.80;81.20;;;;;;5018677;28;88146;-65
2021/12/06 02:09:17;;;;;;;;;;;6.80;81.20;;;;;;5017763;28;88172;-63
2021/12/06 02:11:43;;;;;;;;;;;6.80;81.10;;;;;;5017094;28;87168;-65
2021/12/06 02:17:34;;;;;;;;;;;6.80;81.00;;;;;;5019536;28;88103;-65
2021/12/06 02:19:40;;;;;;;;;;;6.80;81.10;;;;;;5011764;28;87179;-65
2021/12/06 02:22:06;;;;;;;;;;;6.80;81.10;;;;;;5018098;28;87627;-66
2021/12/06 02:24:33;;;;;;;;;;;6.70;81.10;;;;;;5019324;28;87805;-65
2021/12/06 02:26:59;;;;;;;;;;;6.80;81.00;;;;;;5015511;28;88931;-65
2021/12/06 02:29:25;;;;;;;;;;;6.80;81.10;;;;;;5015657;28;89154;-65
2021/12/06 02:31:51;;;;;;;;;;;6.80;81.00;;;;;;5019430;28;87215;-64
2021/12/06 02:34:16;;;;;;;;;;;6.80;81.10;;;;;;5018128;28;87619;-65
2021/12/06 02:36:42;;;;;;;;;;;6.80;81.10;;;;;;5017496;28;88347;-65
2021/12/06 02:39:10;;;;;;;;;;;6.80;81.10;;;;;;5019284;28;88189;-65
2021/12/06 02:41:36;;;;;;;;;;;6.80;81.10;;;;;;5019426;28;87877;-65
2021/12/06 02:44:02;;;;;;;;;;;6.70;81.10;;;;;;5021401;28;88323;-65
2021/12/06 02:46:28;;;;;;;;;;;6.80;81.00;;;;;;5025770;28;87006;-65
2021/12/06 02:48:53;;;;;;;;;;;6.70;81.00;;;;;;5019403;28;89187;-65
2021/12/06 02:51:19;;;;;;;;;;;6.70;81.00;;;;;;5022850;28;87272;-65
2021/12/06 02:53:46;;;;;;;;;;;6.80;81.20;;;;;;5020191;28;89807;-65
2021/12/06 02:56:29;;;;;;;;;;;6.80;81.00;;;;;;5020199;28;89562;-65
2021/12/06 02:58:58;;;;;;;;;;;6.70;81.20;;;;;;5020449;28;87145;-65
2021/12/06 03:01:46;;;;;;;;;;;6.80;81.10;;;;;;5020325;28;88565;-65
2021/12/06 03:04:12;;;;;;;;;;;6.70;81.00;;;;;;5019716;28;88805;-65
2021/12/06 03:06:40;;;;;;;;;;;6.70;81.10;;;;;;5022025;28;87198;-65
2021/12/06 03:09:16;;;;;;;;;;;6.70;81.10;;;;;;5024071;28;88531;-65
2021/12/06 03:11:46;;;;;;;;;;;6.70;81.10;;;;;;5021789;28;88134;-65
2021/12/06 03:14:15;;;;;;;;;;;6.70;80.90;;;;;;5020648;28;87185;-65
2021/12/06 03:16:41;;;;;;;;;;;6.70;81.10;;;;;;5022669;28;87527;-65
2021/12/06 03:19:07;;;;;;;;;;;6.70;81.30;;;;;;5019135;28;88130;-66
2021/12/06 03:21:32;;;;;;;;;;;6.70;81.20;;;;;;5021214;28;89785;-65
2021/12/06 03:23:58;;;;;;;;;;;6.70;81.70;;;;;;5020618;28;88166;-65
2021/12/06 03:26:25;;;;;;;;;;;6.70;81.20;;;;;;5018630;28;87150;-65
2021/12/06 03:28:51;;;;;;;;;;;6.70;81.20;;;;;;5023170;28;87436;-65
2021/12/06 03:31:17;;;;;;;;;;;6.70;81.00;;;;;;5023870;28;88163;-65
2021/12/06 03:33:44;;;;;;;;;;;6.70;81.00;;;;;;5022701;28;88841;-65
2021/12/06 03:36:10;;;;;;;;;;;6.70;81.10;;;;;;5021304;28;87254;-65
2021/12/06 03:38:36;;;;;;;;;;;6.70;80.90;;;;;;5020799;28;88855;-65
2021/12/06 03:41:02;;;;;;;;;;;6.70;81.00;;;;;;5019437;28;88815;-65
2021/12/06 03:43:28;;;;;;;;;;;6.70;81.10;;;;;;5019361;28;89293;-65
2021/12/06 03:45:53;;;;;;;;;;;6.70;81.20;;;;;;5020843;28;87883;-65
2021/12/06 03:48:19;;;;;;;;;;;6.70;81.10;;;;;;5019828;28;87233;-65
2021/12/06 03:50:45;;;;;;;;;;;6.70;81.20;;;;;;5023796;28;88645;-65
2021/12/06 03:53:10;;;;;;;;;;;6.70;81.10;;;;;;5018137;28;88311;-65
2021/12/06 03:55:36;;;;;;;;;;;6.70;81.00;;;;;;5021479;28;88042;-65
2021/12/06 03:58:01;;;;;;;;;;;6.70;81.00;;;;;;5019453;28;87767;-65
2021/12/06 04:00:27;;;;;;;;;;;6.70;81.00;;;;;;5021431;28;86896;-65
2021/12/06 04:02:53;;;;;;;;;;;6.70;81.10;;;;;;5020273;28;87709;-65
2021/12/06 04:05:18;;;;;;;;;;;6.70;81.00;;;;;;5021725;28;87209;-65
2021/12/06 04:07:44;;;;;;;;;;;6.70;81.10;;;;;;5018835;28;88936;-65
2021/12/06 04:10:11;;;;;;;;;;;6.80;80.90;;;;;;5019916;28;89562;-64
2021/12/06 04:12:37;;;;;;;;;;;6.70;81.20;;;;;;5023818;28;87191;-65
2021/12/06 04:15:08;;;;;;;;;;;6.70;81.10;;;;;;5018781;28;89318;-65
2021/12/06 04:17:37;;;;;;;;;;;6.70;81.10;;;;;;5020696;28;87203;-65
2021/12/06 04:20:07;;;;;;;;;;;6.70;81.20;;;;;;5018659;28;87615;-65
2021/12/06 04:22:33;;;;;;;;;;;6.70;81.10;;;;;;5019724;28;91678;-65
2021/12/06 04:25:01;;;;;;;;;;;6.70;81.10;;;;;;5019554;28;86463;-65
2021/12/06 04:27:27;;;;;;;;;;;6.70;81.70;;;;;;5018329;28;88913;-65
2021/12/06 04:29:52;;;;;;;;;;;6.70;81.20;;;;;;5020320;28;88198;-65
2021/12/06 04:32:18;;;;;;;;;;;6.70;81.10;;;;;;5019301;28;88225;-65
2021/12/06 04:34:44;;;;;;;;;;;6.70;81.30;;;;;;5022701;28;88467;-65
2021/12/06 04:37:11;;;;;;;;;;;6.70;81.20;;;;;;5020077;28;88690;-65
2021/12/06 04:39:36;;;;;;;;;;;6.70;81.30;;;;;;5018278;28;87914;-65
2021/12/06 04:42:02;;;;;;;;;;;6.70;81.40;;;;;;5020022;28;88604;-65
2021/12/06 04:44:28;;;;;;;;;;;6.70;81.60;;;;;;5019559;28;87602;-65
2021/12/06 04:46:54;;;;;;;;;;;6.70;81.60;;;;;;5019320;28;87200;-65
2021/12/06 04:49:19;;;;;;;;;;;6.70;81.30;;;;;;5021363;28;88920;-65
2021/12/06 04:51:47;;;;;;;;;;;6.70;81.30;;;;;;5018822;28;88864;-65
2021/12/06 04:54:13;;;;;;;;;;;6.70;81.30;;;;;;5018230;28;88550;-65
2021/12/06 04:56:44;;;;;;;;;;;6.70;81.20;;;;;;5021442;28;88943;-65
2021/12/06 04:59:15;;;;;;;;;;;6.70;81.40;;;;;;5019337;28;88657;-65
2021/12/06 05:01:42;;;;;;;;;;;6.70;81.40;;;;;;5017909;28;88480;-65
2021/12/06 05:04:12;;;;;;;;;;;6.70;81.40;;;;;;5019460;28;87168;-65
2021/12/06 05:06:40;;;;;;;;;;;6.70;81.40;;;;;;5019847;28;87313;-65
2021/12/06 05:09:14;;;;;;;;;;;6.70;81.30;;;;;;5017561;28;89288;-65
2021/12/06 05:11:40;;;;;;;;;;;6.70;81.40;;;;;;5018277;28;88052;-65
2021/12/06 05:14:06;;;;;;;;;;;6.70;81.40;;;;;;5018509;28;87606;-65
2021/12/06 05:16:33;;;;;;;;;;;6.70;81.40;;;;;;5019821;28;88798;-65
2021/12/06 05:18:59;;;;;;;;;;;6.70;81.40;;;;;;5022148;28;88899;-65
2021/12/06 05:21:25;;;;;;;;;;;6.70;81.60;;;;;;5016753;28;88389;-65
2021/12/06 05:23:51;;;;;;;;;;;6.70;81.60;;;;;;5020040;28;87192;-64
2021/12/06 05:26:17;;;;;;;;;;;6.70;81.60;;;;;;5019160;28;88937;-65
2021/12/06 05:28:44;;;;;;;;;;;6.70;81.60;;;;;;5019488;28;89096;-65
2021/12/06 05:31:15;;;;;;;;;;;6.70;81.40;;;;;;5019978;28;87220;-65
2021/12/06 05:33:42;;;;;;;;;;;6.70;81.40;;;;;;5018375;28;88969;-65
2021/12/06 05:36:08;;;;;;;;;;;6.70;81.50;;;;;;5017620;28;88319;-65
2021/12/06 05:38:34;;;;;;;;;;;6.70;81.50;;;;;;5019948;28;86411;-65
2021/12/06 05:40:59;;;;;;;;;;;6.70;81.40;;;;;;5020995;28;87192;-65
2021/12/06 05:43:25;;;;;;;;;;;6.70;81.30;;;;;;5018711;28;87166;-64
2021/12/06 05:45:51;;;;;;;;;;;6.70;81.60;;;;;;5018509;28;88917;-64
2021/12/06 05:48:17;;;;;;;;;;;6.70;81.40;;;;;;5017220;28;87770;-65
2021/12/06 05:50:44;;;;;;;;;;;6.70;81.60;;;;;;5019837;28;87199;-64
2021/12/06 05:53:10;;;;;;;;;;;6.70;81.50;;;;;;5017302;28;88569;-65
2021/12/06 05:55:35;;;;;;;;;;;6.70;81.50;;;;;;5017620;28;88677;-65
2021/12/06 05:58:03;;;;;;;;;;;6.70;81.40;;;;;;5019227;28;87772;-64
2021/12/06 06:00:31;;;;;;;;;;;6.70;81.60;;;;;;5021637;28;89628;-65
2021/12/06 06:02:57;;;;;;;;;;;6.70;81.50;;;;;;5019321;28;87508;-65
2021/12/06 06:05:23;;;;;;;;;;;6.70;81.50;;;;;;5017131;28;87269;-65
2021/12/06 06:07:48;;;;;;;;;;;6.70;81.60;;;;;;5019130;28;87957;-65
2021/12/06 06:10:15;;;;;;;;;;;6.60;81.80;;;;;;5018798;28;88101;-64
2021/12/06 06:12:40;;;;;;;;;;;6.70;82.00;;;;;;5018406;28;89385;-64
2021/12/06 06:15:06;;;;;;;;;;;6.60;82.10;;;;;;5018167;28;88343;-64
2021/12/06 06:17:39;;;;;;;;;;;6.70;82.00;;;;;;5016877;28;87133;-64
2021/12/06 06:20:06;;;;;;;;;;;6.70;82.10;;;;;;5016819;28;89185;-64
2021/12/06 06:22:32;;;;;;;;;;;6.70;82.70;;;;;;5020627;28;90276;-64
2021/12/06 06:24:57;;;;;;;;;;;6.60;82.40;;;;;;5018346;28;87581;-64
2021/12/06 06:27:23;;;;;;;;;;;6.70;82.60;;;;;;5017819;28;87508;-65
2021/12/06 06:29:48;;;;;;;;;;;6.60;82.60;;;;;;5018483;28;87822;-65
2021/12/06 06:32:14;;;;;;;;;;;6.60;82.50;;;;;;5017115;28;87361;-64
2021/12/06 06:34:39;;;;;;;;;;;6.60;82.50;;;;;;5018128;28;89438;-64
2021/12/06 06:37:05;;;;;;;;;;;6.70;82.50;;;;;;5016521;28;87109;-64
2021/12/06 06:39:31;;;;;;;;;;;6.70;82.70;;;;;;5019274;28;87302;-65
2021/12/06 06:41:57;;;;;;;;;;;6.70;82.50;;;;;;5018604;28;88123;-64
2021/12/06 06:44:22;;;;;;;;;;;6.70;82.60;;;;;;5021639;28;87123;-64
2021/12/06 06:46:49;;;;;;;;;;;6.70;82.50;;;;;;5017724;28;88258;-65
2021/12/06 06:49:14;;;;;;;;;;;6.70;82.10;;;;;;5019093;28;87185;-64
2021/12/06 06:51:41;;;;;;;;;;;6.70;82.00;;;;;;5017947;28;86415;-64
2021/12/06 06:54:06;;;;;;;;;;;6.70;82.00;;;;;;5016531;28;88140;-64
2021/12/06 06:56:32;;;;;;;;;;;6.70;82.00;;;;;;5016631;28;87257;-64
2021/12/06 06:58:58;;;;;;;;;;;6.80;82.50;;;;;;5015475;28;88109;-64
2021/12/06 07:01:24;;;;;;;;;;;6.80;81.80;;;;;;5018723;28;87886;-64
2021/12/06 07:03:53;;;;;;;;;;;6.80;81.70;;;;;;5017023;28;88063;-64
2021/12/06 07:06:20;;;;;;;;;;;6.80;81.70;;;;;;5020966;28;89186;-64
2021/12/06 07:08:45;;;;;;;;;;;6.80;81.70;;;;;;5018551;28;87219;-65
2021/12/06 07:11:11;;;;;;;;;;;6.80;81.60;;;;;;5018844;28;87880;-64
2021/12/06 07:13:38;;;;;;;;;;;6.80;81.70;;;;;;5015861;28;88271;-65
2021/12/06 07:16:05;;;;;;;;;;;6.80;81.50;;;;;;5019384;28;86398;-64
2021/12/06 07:18:30;;;;;;;;;;;6.80;81.90;;;;;;5017075;28;87157;-64
2021/12/06 07:20:56;;;;;;;;;;;6.80;81.30;;;;;;5016045;28;88691;-64
2021/12/06 07:23:22;;;;;;;;;;;6.80;81.30;;;;;;5016738;28;88056;-65
2021/12/06 07:25:47;;;;;;;;;;;6.80;81.30;;;;;;5018471;28;88604;-65
2021/12/06 07:28:13;;;;;;;;;;;6.80;81.20;;;;;;5022420;28;87571;-64
2021/12/06 07:30:38;;;;;;;;;;;6.80;81.20;;;;;;5023069;28;88012;-65
2021/12/06 07:33:04;;;;;;;;;;;6.80;81.20;;;;;;5020044;28;88588;-65
2021/12/06 07:35:31;;;;;;;;;;;6.80;81.10;;;;;;5022162;28;88057;-65
2021/12/06 07:37:58;;;;;;;;;;;6.80;81.10;;;;;;5022304;28;88838;-64
2021/12/06 07:40:23;;;;;;;;;;;6.80;81.10;;;;;;5021064;28;88844;-65
2021/12/06 07:42:49;;;;;;;;;;;6.80;81.00;;;;;;5022358;28;87133;-64
2021/12/06 07:45:16;;;;;;;;;;;6.90;81.10;;;;;;5022607;28;88713;-65
2021/12/06 07:47:41;;;;;;;;;;;6.90;81.10;;;;;;5020596;28;88647;-64
2021/12/06 07:50:09;;;;;;;;;;;6.90;81.10;;;;;;5024717;28;87224;-65
2021/12/06 07:52:35;;;;;;;;;;;6.90;81.20;;;;;;5019128;28;88141;-64
2021/12/06 07:55:02;;;;;;;;;;;6.90;81.10;;;;;;5019779;28;87159;-64
2021/12/06 07:57:28;;;;;;;;;;;6.90;81.20;;;;;;5019411;28;87204;-64
2021/12/06 07:59:53;;;;;;;;;;;6.90;81.10;;;;;;5018622;28;88301;-64
2021/12/06 08:02:19;;;;;;;;;;;6.90;81.00;;;;;;5019005;28;87159;-64
2021/12/06 08:04:48;;;;;;;;;;;6.90;81.10;;;;;;5020287;28;87522;-64
2021/12/06 08:07:14;;;;;;;;;;;6.90;81.20;;;;;;5020438;28;88670;-64
2021/12/06 08:09:39;;;;;;;;;;;6.90;81.40;;;;;;5021389;28;88075;-64
2021/12/06 08:12:05;;;;;;;;;;;6.90;81.30;;;;;;5017410;28;89097;-65
2021/12/06 08:14:31;;;;;;;;;;;6.90;81.40;;;;;;5019390;28;87153;-64
2021/12/06 08:16:57;;;;;;;;;;;6.90;81.40;;;;;;5020513;28;87446;-64
2021/12/06 08:19:23;;;;;;;;;;;6.90;81.60;;;;;;5019754;28;88239;-65
2021/12/06 08:21:48;;;;;;;;;;;6.90;81.30;;;;;;5020218;28;87188;-64
2021/12/06 08:24:14;;;;;;;;;;;6.90;81.30;;;;;;5021456;28;87769;-64
2021/12/06 08:26:41;;;;;;;;;;;6.90;81.20;;;;;;5021281;28;88845;-64
2021/12/06 08:29:07;;;;;;;;;;;6.90;81.20;;;;;;5022362;28;87618;-64
2021/12/06 08:31:33;;;;;;;;;;;6.90;81.30;;;;;;5024747;28;87181;-64
2021/12/06 08:33:59;;;;;;;;;;;6.90;81.30;;;;;;5022241;28;87349;-64
2021/12/06 08:36:25;;;;;;;;;;;6.90;81.30;;;;;;5018690;28;89751;-64
2021/12/06 08:38:51;;;;;;;;;;;6.90;81.30;;;;;;5018630;28;90164;-64
2021/12/06 08:41:19;;;;;;;;;;;6.90;81.20;;;;;;5020141;28;88113;-64
2021/12/06 08:43:45;;;;;;;;;;;6.90;81.20;;;;;;5021257;28;87294;-64
2021/12/06 08:46:12;;;;;;;;;;;6.90;81.20;;;;;;5020632;28;88351;-64
2021/12/06 08:48:39;;;;;;;;;;;6.90;81.30;;;;;;5018861;28;87225;-64
2021/12/06 08:51:08;;;;;;;;;;;6.90;81.20;;;;;;5017838;28;87142;-64
2021/12/06 08:53:34;;;;;;;;;;;7.00;81.30;;;;;;5023182;28;87521;-64
2021/12/06 08:55:59;;;;;;;;;;;6.90;81.20;;;;;;5021384;28;87177;-64
2021/12/06 08:58:25;;;;;;;;;;;7.00;81.40;;;;;;5019392;28;88015;-64
2021/12/06 09:00:50;;;;;;;;;;;7.00;81.80;;;;;;5016486;28;89021;-64
2021/12/06 09:03:16;;;;;;;;;;;7.00;81.50;;;;;;5020545;28;88833;-64
2021/12/06 09:05:44;;;;;;;;;;;6.90;81.60;;;;;;5020565;28;88248;-64
2021/12/06 09:08:10;;;;;;;;;;;7.00;81.60;;;;;;5019537;28;87117;-65
2021/12/06 09:10:36;;;;;;;;;;;7.00;81.80;;;;;;5020468;28;87245;-64
2021/12/06 09:13:02;;;;;;;;;;;6.90;81.80;;;;;;5020569;28;88164;-64
2021/12/06 09:15:28;;;;;;;;;;;7.00;81.90;;;;;;5022642;28;87166;-64
2021/12/06 09:17:54;;;;;;;;;;;7.00;81.80;;;;;;5019027;28;87579;-64
2021/12/06 09:20:21;;;;;;;;;;;7.00;81.80;;;;;;5018205;28;87135;-64
2021/12/06 09:22:47;;;;;;;;;;;7.00;81.80;;;;;;5017039;28;87542;-64
2021/12/06 09:25:14;;;;;;;;;;;7.00;81.90;;;;;;5019855;28;91468;-64
2021/12/06 09:27:39;;;;;;;;;;;7.00;81.90;;;;;;5019616;28;87196;-65
2021/12/06 09:30:08;;;;;;;;;;;7.00;81.90;;;;;;5020379;28;87201;-64
2021/12/06 09:32:34;;;;;;;;;;;7.00;81.90;;;;;;5015996;28;89488;-64
2021/12/06 09:35:00;;;;;;;;;;;7.00;81.90;;;;;;5017143;28;88139;-64
2021/12/06 09:37:26;;;;;;;;;;;7.00;81.90;;;;;;5019011;28;89729;-64
2021/12/06 09:39:52;;;;;;;;;;;7.00;82.10;;;;;;5017023;28;87196;-64
2021/12/06 09:42:18;;;;;;;;;;;7.00;82.10;;;;;;5016987;28;88774;-64
2021/12/06 09:44:45;;;;;;;;;;;7.00;82.20;;;;;;5017073;28;89354;-64
2021/12/06 09:47:12;;;;;;;;;;;7.00;82.20;;;;;;5016813;28;88181;-64
2021/12/06 09:49:37;;;;;;;;;;;7.00;82.20;;;;;;5017162;28;89474;-64
2021/12/06 09:52:04;;;;;;;;;;;7.10;82.30;;;;;;5015406;28;87672;-64
2021/12/06 09:54:32;;;;;;;;;;;7.10;82.40;;;;;;5017184;28;88688;-64
2021/12/06 09:56:58;;;;;;;;;;;7.10;82.40;;;;;;5023140;28;88782;-64
2021/12/06 09:59:25;;;;;;;;;;;7.10;82.40;;;;;;5019013;28;88408;-64
2021/12/06 10:01:52;;;;;;;;;;;7.00;82.50;;;;;;5020384;28;88679;-64
2021/12/06 10:04:19;;;;;;;;;;;7.10;82.60;;;;;;5018790;28;89555;-64
2021/12/06 10:06:45;;;;;;;;;;;7.10;82.60;;;;;;5018117;28;86436;-65
2021/12/06 10:09:11;;;;;;;;;;;7.10;82.70;;;;;;5016587;28;87335;-65
2021/12/06 10:11:38;;;;;;;;;;;7.10;82.70;;;;;;5016501;28;87841;-64
2021/12/06 10:14:04;;;;;;;;;;;7.10;82.80;;;;;;5016375;28;88195;-65
2021/12/06 10:16:31;;;;;;;;;;;7.10;82.80;;;;;;5016433;28;88805;-64
2021/12/06 10:18:57;;;;;;;;;;;7.20;82.90;;;;;;5021783;28;88848;-64
2021/12/06 10:21:29;;;;;;;;;;;7.10;82.80;;;;;;5020483;28;88025;-64
2021/12/06 10:23:56;;;;;;;;;;;7.20;82.80;;;;;;5020066;28;88154;-65
2021/12/06 10:26:23;;;;;;;;;;;7.20;82.80;;;;;;5020277;28;87199;-64
2021/12/06 10:28:54;;;;;;;;;;;7.10;82.80;;;;;;5017344;28;87601;-64
2021/12/06 10:31:19;;;;;;;;;;;7.20;82.90;;;;;;5018120;28;89064;-64
2021/12/06 10:33:46;;;;;;;;;;;7.20;83.00;;;;;;5018638;28;87223;-64
2021/12/06 10:36:13;;;;;;;;;;;7.10;82.90;;;;;;5018355;28;87676;-64
2021/12/06 10:38:41;;;;;;;;;;;7.20;83.00;;;;;;5015319;28;91139;-64
2021/12/06 10:41:08;;;;;;;;;;;7.20;82.90;;;;;;5021602;28;87203;-64
2021/12/06 10:43:34;;;;;;;;;;;7.20;82.90;;;;;;5019241;28;89423;-64
2021/12/06 10:46:01;;;;;;;;;;;7.20;83.00;;;;;;5019558;28;87275;-64
2021/12/06 10:48:30;;;;;;;;;;;7.20;83.00;;;;;;5019061;28;87550;-65
2021/12/06 10:51:00;;;;;;;;;;;7.20;83.10;;;;;;5019440;28;87801;-64
2021/12/06 10:53:32;;;;;;;;;;;7.20;83.10;;;;;;5015817;28;88727;-64
2021/12/06 10:55:58;;;;;;;;;;;7.20;83.10;;;;;;5015982;28;88686;-64
2021/12/06 10:58:25;;;;;;;;;;;7.20;83.10;;;;;;5015148;28;89328;-64
2021/12/06 11:00:53;;;;;;;;;;;7.20;83.10;;;;;;5019027;28;88052;-64
2021/12/06 11:03:25;;;;;;;;;;;7.20;83.10;;;;;;5023734;28;88220;-64
2021/12/06 11:06:01;;;;;;;;;;;7.20;83.20;;;;;;5022378;28;87195;-64
2021/12/06 11:08:27;;;;;;;;;;;7.20;83.30;;;;;;5022189;28;89567;-63
2021/12/06 11:10:55;;;;;;;;;;;7.20;83.20;;;;;;5021085;28;87526;-64
2021/12/06 11:13:28;;;;;;;;;;;7.30;83.30;;;;;;5019893;28;87159;-64
2021/12/06 11:15:59;;;;;;;;;;;7.30;83.30;;;;;;5021835;28;89084;-64
2021/12/06 11:18:29;;;;;;;;;;;7.30;83.30;;;;;;5019183;28;89232;-64
2021/12/06 11:20:54;;;;;;;;;;;7.30;83.40;;;;;;5019048;28;87870;-64
2021/12/06 11:23:20;;;;;;;;;;;7.30;83.40;;;;;;5021614;28;88718;-64
2021/12/06 11:25:59;;;;;;;;;;;7.30;83.30;;;;;;5026096;28;88176;-64
2021/12/06 11:28:30;;;;;;;;;;;7.30;83.30;;;;;;5018146;28;88486;-64
2021/12/06 11:31:02;;;;;;;;;;;7.30;83.40;;;;;;5018713;28;87888;-64
2021/12/06 11:33:33;;;;;;;;;;;7.30;83.40;;;;;;5020416;28;88121;-64
2021/12/06 11:36:17;;;;;;;;;;;7.30;83.40;;;;;;5018888;28;87654;-64
2021/12/06 11:38:46;;;;;;;;;;;7.30;83.40;;;;;;5021690;28;87729;-64
2021/12/06 11:41:12;;;;;;;;;;;7.40;83.50;;;;;;5020336;28;87207;-64
2021/12/06 11:43:38;;;;;;;;;;;7.30;83.40;;;;;;5018546;28;87171;-64
2021/12/06 11:46:04;;;;;;;;;;;7.30;83.40;;;;;;5019135;28;88688;-64
2021/12/06 11:48:36;;;;;;;;;;;7.40;83.50;;;;;;5021183;27;87206;-64
2021/12/06 11:51:16;;;;;;;;;;;7.40;83.40;;;;;;5022032;28;88606;-65
2021/12/06 11:53:44;;;;;;;;;;;7.40;83.40;;;;;;5017387;28;88111;-64
2021/12/06 11:56:12;;;;;;;;;;;7.30;83.40;;;;;;5022555;28;89989;-64
2021/12/06 11:58:40;;;;;;;;;;;7.40;83.50;;;;;;5018421;28;88438;-65
2021/12/06 12:01:05;;;;;;;;;;;7.40;83.50;;;;;;5022430;28;87215;-64
2021/12/06 12:03:32;;;;;;;;;;;7.40;83.60;;;;;;5022130;28;88110;-64
2021/12/06 12:05:58;;;;;;;;;;;7.40;83.40;;;;;;5019496;28;88281;-65
2021/12/06 12:08:24;;;;;;;;;;;7.40;83.80;;;;;;5021716;28;87144;-64
2021/12/06 12:10:54;;;;;;;;;;;7.40;83.80;;;;;;5017829;28;88684;-64
2021/12/06 12:13:38;;;;;;;;;;;7.40;83.80;;;;;;5019203;28;87205;-64
2021/12/06 12:16:08;;;;;;;;;;;7.40;83.70;;;;;;5021401;28;87151;-65
2021/12/06 12:18:34;;;;;;;;;;;7.40;83.70;;;;;;5020100;28;89173;-64
2021/12/06 12:21:00;;;;;;;;;;;7.40;83.70;;;;;;5019939;28;87184;-65
2021/12/06 12:23:30;;;;;;;;;;;7.40;83.80;;;;;;5020142;28;87148;-64
2021/12/06 12:26:07;;;;;;;;;;;7.40;83.70;;;;;;5020997;28;89752;-64
2021/12/06 12:28:40;;;;;;;;;;;7.40;83.80;;;;;;5019907;28;87267;-65
2021/12/06 12:31:08;;;;;;;;;;;7.40;83.70;;;;;;5020494;28;88739;-64
2021/12/06 12:33:35;;;;;;;;;;;7.40;83.80;;;;;;5021859;28;87337;-64
2021/12/06 12:36:11;;;;;;;;;;;7.40;83.80;;;;;;5021939;28;88723;-65
2021/12/06 12:38:38;;;;;;;;;;;7.40;83.70;;;;;;5021489;28;89782;-64
2021/12/06 12:41:06;;;;;;;;;;;7.50;83.80;;;;;;5022178;28;87206;-65
2021/12/06 12:43:32;;;;;;;;;;;7.40;83.80;;;;;;5019213;28;88149;-64
2021/12/06 12:46:02;;;;;;;;;;;7.40;83.80;;;;;;5019984;28;88274;-64
2021/12/06 12:48:28;;;;;;;;;;;7.40;83.70;;;;;;5021117;28;87208;-64
2021/12/06 12:51:08;;;;;;;;;;;7.40;83.80;;;;;;5020807;28;87943;-65
2021/12/06 12:53:44;;;;;;;;;;;7.40;83.90;;;;;;5023589;28;90225;-64
2021/12/06 12:56:17;;;;;;;;;;;7.40;83.80;;;;;;5018507;28;88965;-65
2021/12/06 12:58:42;;;;;;;;;;;7.50;83.80;;;;;;5019858;28;89545;-65
2021/12/06 13:01:09;;;;;;;;;;;7.40;83.90;;;;;;5021292;28;86405;-64
2021/12/06 13:03:34;;;;;;;;;;;7.50;83.90;;;;;;5020626;28;88067;-64
2021/12/06 13:06:19;;;;;;;;;;;7.50;83.90;;;;;;5020421;28;88606;-65
2021/12/06 13:08:46;;;;;;;;;;;7.50;84.00;;;;;;5017425;28;88165;-64
2021/12/06 13:11:11;;;;;;;;;;;7.50;83.80;;;;;;5017335;28;88187;-65
2021/12/06 13:13:44;;;;;;;;;;;7.50;84.00;;;;;;5018138;28;87920;-64
2021/12/06 13:17:05;;;;;;;;;;;7.40;84.00;;;;;;5019824;28;87211;-64
2021/12/06 13:21:48;;;;;;;;;;;7.50;84.10;;;;;;5020757;28;87197;-64
2021/12/06 13:24:15;;;;;;;;;;;7.40;84.10;;;;;;5021128;28;87634;-64
2021/12/06 13:26:43;;;;;;;;;;;7.50;84.20;;;;;;5018373;28;87959;-64
2021/12/06 13:29:14;;;;;;;;;;;7.50;84.10;;;;;;5018113;28;87243;-64
2021/12/06 13:31:40;;;;;;;;;;;7.50;84.20;;;;;;5018101;28;87947;-64
2021/12/06 13:34:22;;;;;;;;;;;7.50;84.10;;;;;;5017985;28;89251;-64
2021/12/06 13:37:08;;;;;;;;;;;7.50;84.30;;;;;;5017747;28;87309;-64
2021/12/06 13:39:41;;;;;;;;;;;7.50;84.30;;;;;;5021128;28;87252;-64
2021/12/06 13:42:08;;;;;;;;;;;7.50;84.10;;;;;;5016691;28;87137;-64
2021/12/06 13:44:46;;;;;;;;;;;7.50;84.00;;;;;;5019002;28;89126;-64
2021/12/06 13:47:19;;;;;;;;;;;7.50;84.00;;;;;;5019429;28;87167;-64
2021/12/06 13:50:06;;;;;;;;;;;7.50;83.90;;;;;;5017029;28;87258;-64
2021/12/06 13:52:46;;;;;;;;;;;7.50;83.90;;;;;;5017739;28;88380;-64
2021/12/06 13:55:29;;;;;;;;;;;7.50;84.00;;;;;;5015986;28;89693;-64
2021/12/06 13:57:59;;;;;;;;;;;7.50;83.80;;;;;;5016615;28;87170;-65
2021/12/06 14:00:27;;;;;;;;;;;7.60;83.90;;;;;;5016424;28;88090;-65
2021/12/06 14:02:54;;;;;;;;;;;7.50;83.90;;;;;;5020787;28;89565;-64
2021/12/06 14:05:20;;;;;;;;;;;7.60;83.90;;;;;;5018843;28;89376;-64
2021/12/06 14:07:46;;;;;;;;;;;7.50;84.00;;;;;;5017564;28;87530;-65
2021/12/06 14:10:13;;;;;;;;;;;7.50;84.00;;;;;;5016991;28;87180;-64
2021/12/06 14:12:40;;;;;;;;;;;7.50;84.10;;;;;;5016083;28;88606;-65
2021/12/06 14:15:13;;;;;;;;;;;7.50;84.80;;;;;;5018514;28;89085;-64
2021/12/06 14:17:39;;;;;;;;;;;7.60;84.20;;;;;;5020356;28;86409;-65
2021/12/06 14:20:08;;;;;;;;;;;7.60;84.30;;;;;;5020383;28;88687;-65
2021/12/06 14:22:34;;;;;;;;;;;7.50;84.70;;;;;;5019483;28;89125;-64
2021/12/06 14:25:01;;;;;;;;;;;7.60;84.60;;;;;;5016329;28;88639;-65
2021/12/06 14:27:28;;;;;;;;;;;7.60;84.40;;;;;;5015263;28;90293;-65
2021/12/06 14:29:54;;;;;;;;;;;7.60;84.30;;;;;;5016389;28;88720;-65
2021/12/06 14:32:21;;;;;;;;;;;7.60;84.20;;;;;;5015827;28;88629;-65
2021/12/06 14:34:47;;;;;;;;;;;7.60;84.20;;;;;;5019542;28;87869;-65
2021/12/06 14:37:14;;;;;;;;;;;7.60;84.20;;;;;;5018731;28;88041;-65
2021/12/06 14:39:41;;;;;;;;;;;7.60;84.20;;;;;;5022554;28;87951;-64
2021/12/06 14:42:12;;;;;;;;;;;7.60;84.20;;;;;;5022740;28;87367;-65
2021/12/06 14:44:42;;;;;;;;;;;7.60;84.10;;;;;;5026492;28;87149;-64
2021/12/06 14:47:12;;;;;;;;;;;7.60;84.00;;;;;;5021365;28;88943;-64
2021/12/06 14:49:40;;;;;;;;;;;7.60;84.00;;;;;;5019042;28;88124;-64
2021/12/06 14:52:12;;;;;;;;;;;7.60;84.00;;;;;;5019918;28;88968;-65